Matthews, IN (46957)

2:35 PM EDT on May 06, 2015 (GMT -0400)
WB9HLA-1 | | Change Station
CLOSE
Current Station
Personal Weather Station
Location: Hartford City, IN
Elevation: 918 ft
Nearby Weather Stations

Elev 918 ft 40.46 °N, 85.37 °W | Updated 19 minutes ago

Partly Cloudy
Partly Cloudy
88.5 °F
Feels Like 85 °F
N
0.0
Wind Variable Wind from NW
Gusts 0.0 mph

Today
High -- | Low -- °F
--% Chance of Precip.
Yesterday
High -- | Low -- °F
Precip. -- in
6:35 AM 8:42 PM
Waning Gibbous, 93% visible
Pressure 30.16 in
Visibility 10.0 miles
Clouds Few 6500 ft
Scattered Clouds 8000 ft
Heat Index 85 °F
Dew Point 32 °F
Humidity 13%
Rainfall -999.00 in
Snow Depth Not available.
UV 9 out of 12
Pollen 10.00 out of 12
Air Quality Not available.
Flu Activity Local Activity
METAR KMIE 061753Z 29004KT 10SM FEW065 SCT080 27/12 A3018 RMK AO2 SLP213 T02720117 10278 20144 58011

More Conditions Fewer Conditions

Pressure 30.16 in
Visibility 10.0 miles
Clouds Few 6500 ft
Scattered Clouds 8000 ft
Heat Index 85 °F
Dew Point 32 °F
Humidity 13%
Rainfall -999.00 in
Snow Depth Not available.
UV 9 out of 12
Pollen 10.00 out of 12
Air Quality Not available.
Flu Activity Local Activity
METAR KMIE 061753Z 29004KT 10SM FEW065 SCT080 27/12 A3018 RMK AO2 SLP213 T02720117 10278 20144 58011

More Conditions Fewer Conditions

10-Day Weather Forecast

Almanac

Astronomy

May. 06, 2015 Rise Set
Actual Time
Civil Twilight
Nautical Twilight
Astronomical Twilight
Moon
Length of Visible Light
Length of Day
Tomorrow will be .
, % of the Moon is Illuminated

Today's Extremes

State Highs State Lows

Community

WunderPhotos

Upload Photos

1,818,978 photos uploaded!

WunderBlogs® & News

Nearby

Air Quality

  Air Quality AQ Index Pollutant
Not available.

Snow Depth

Station Depth Elevation

Earthquake Activity

City Distance Mag. Time & Date
Minimum magnitude displayed is 2.5.

Coastal Water Temperatures

Place Temperature

Stations

Nearby Weather Stations

Station Location Temp. Windchill Dew Point Humidity Wind Precip. Elev Updated Type